sensor_id;sensor_type;location;lat;lon;timestamp;pressure;altitude;pressure_sealevel;temperature;humidity
78845;BME280;68195;50.854;2.860;2023-11-19T00:01:36;101116.00;;;12.92;100.00
78845;BME280;68195;50.854;2.860;2023-11-19T00:04:01;101087.38;;;12.72;100.00
78845;BME280;68195;50.854;2.860;2023-11-19T00:06:29;101100.28;;;12.77;100.00
78845;BME280;68195;50.854;2.860;2023-11-19T00:08:55;101001.50;;;12.12;100.00
78845;BME280;68195;50.854;2.860;2023-11-19T00:11:20;101081.94;;;12.77;100.00
78845;BME280;68195;50.854;2.860;2023-11-19T00:13:45;101090.91;;;12.88;100.00
78845;BME280;68195;50.854;2.860;2023-11-19T00:16:11;101109.50;;;12.84;100.00
78845;BME280;68195;50.854;2.860;2023-11-19T00:18:37;101084.38;;;12.80;100.00
78845;BME280;68195;50.854;2.860;2023-11-19T00:21:02;101053.75;;;12.64;100.00
78845;BME280;68195;50.854;2.860;2023-11-19T00:23:30;101098.63;;;12.91;100.00
78845;BME280;68195;50.854;2.860;2023-11-19T00:25:58;101071.91;;;12.67;100.00
78845;BME280;68195;50.854;2.860;2023-11-19T00:28:28;100983.34;;;12.09;100.00
78845;BME280;68195;50.854;2.860;2023-11-19T00:30:58;101079.97;;;12.64;100.00
78845;BME280;68195;50.854;2.860;2023-11-19T00:33:28;101094.72;;;12.65;100.00
78845;BME280;68195;50.854;2.860;2023-11-19T00:35:54;101086.66;;;12.52;100.00
78845;BME280;68195;50.854;2.860;2023-11-19T00:38:21;100958.91;;;11.75;100.00
78845;BME280;68195;50.854;2.860;2023-11-19T00:40:48;101078.16;;;12.49;100.00
78845;BME280;68195;50.854;2.860;2023-11-19T00:43:14;101059.41;;;12.23;100.00
78845;BME280;68195;50.854;2.860;2023-11-19T00:45:39;101100.91;;;12.64;100.00
78845;BME280;68195;50.854;2.860;2023-11-19T00:48:05;101102.59;;;12.65;100.00
78845;BME280;68195;50.854;2.860;2023-11-19T00:50:35;101019.94;;;12.26;100.00
78845;BME280;68195;50.854;2.860;2023-11-19T00:53:00;101057.19;;;12.49;100.00
78845;BME280;68195;50.854;2.860;2023-11-19T00:55:28;101024.09;;;12.30;100.00
78845;BME280;68195;50.854;2.860;2023-11-19T00:57:53;101022.66;;;12.25;100.00
78845;BME280;68195;50.854;2.860;2023-11-19T01:00:21;101003.44;;;12.08;100.00
78845;BME280;68195;50.854;2.860;2023-11-19T01:02:51;101021.78;;;12.24;100.00
78845;BME280;68195;50.854;2.860;2023-11-19T01:05:22;101055.22;;;12.37;100.00
78845;BME280;68195;50.854;2.860;2023-11-19T01:07:50;101082.81;;;12.60;100.00
78845;BME280;68195;50.854;2.860;2023-11-19T01:10:21;101079.13;;;12.64;100.00
78845;BME280;68195;50.854;2.860;2023-11-19T01:12:46;101047.03;;;12.43;100.00
78845;BME280;68195;50.854;2.860;2023-11-19T01:15:12;101073.69;;;12.51;100.00
78845;BME280;68195;50.854;2.860;2023-11-19T01:17:38;101039.53;;;12.19;100.00
78845;BME280;68195;50.854;2.860;2023-11-19T01:20:03;101091.06;;;12.52;100.00
78845;BME280;68195;50.854;2.860;2023-11-19T01:22:32;101046.22;;;12.25;100.00
78845;BME280;68195;50.854;2.860;2023-11-19T01:24:57;101073.81;;;12.48;100.00
78845;BME280;68195;50.854;2.860;2023-11-19T01:27:25;101040.50;;;12.34;100.00
78845;BME280;68195;50.854;2.860;2023-11-19T01:29:50;101088.91;;;12.60;100.00
78845;BME280;68195;50.854;2.860;2023-11-19T01:32:18;101057.97;;;12.51;100.00
78845;BME280;68195;50.854;2.860;2023-11-19T01:34:44;101086.47;;;12.57;100.00
78845;BME280;68195;50.854;2.860;2023-11-19T01:37:11;101048.06;;;12.40;100.00
78845;BME280;68195;50.854;2.860;2023-11-19T01:39:39;101022.50;;;12.28;100.00
78845;BME280;68195;50.854;2.860;2023-11-19T01:42:07;101024.09;;;12.30;100.00
78845;BME280;68195;50.854;2.860;2023-11-19T01:44:35;101027.59;;;12.31;100.00
78845;BME280;68195;50.854;2.860;2023-11-19T01:47:00;100967.88;;;11.87;100.00
78845;BME280;68195;50.854;2.860;2023-11-19T01:49:27;100916.28;;;11.56;100.00
78845;BME280;68195;50.854;2.860;2023-11-19T01:51:54;100970.91;;;11.79;100.00
78845;BME280;68195;50.854;2.860;2023-11-19T01:54:19;100968.13;;;11.65;100.00
78845;BME280;68195;50.854;2.860;2023-11-19T01:56:45;100936.81;;;11.46;100.00
78845;BME280;68195;50.854;2.860;2023-11-19T01:59:13;101040.00;;;12.10;100.00
78845;BME280;68195;50.854;2.860;2023-11-19T02:01:40;100959.88;;;11.55;100.00
78845;BME280;68195;50.854;2.860;2023-11-19T02:04:06;101068.25;;;12.21;100.00
78845;BME280;68195;50.854;2.860;2023-11-19T02:06:33;101085.50;;;12.25;100.00
78845;BME280;68195;50.854;2.860;2023-11-19T02:09:04;101070.47;;;12.28;100.00
78845;BME280;68195;50.854;2.860;2023-11-19T02:11:33;101013.09;;;11.90;100.00
78845;BME280;68195;50.854;2.860;2023-11-19T02:14:02;101062.94;;;12.22;100.00
78845;BME280;68195;50.854;2.860;2023-11-19T02:16:30;101025.00;;;11.96;100.00
78845;BME280;68195;50.854;2.860;2023-11-19T02:18:59;100995.81;;;11.86;100.00
78845;BME280;68195;50.854;2.860;2023-11-19T02:21:25;101005.25;;;11.90;100.00
78845;BME280;68195;50.854;2.860;2023-11-19T02:23:50;101026.47;;;12.02;100.00
78845;BME280;68195;50.854;2.860;2023-11-19T02:28:52;101032.47;;;12.04;100.00
78845;BME280;68195;50.854;2.860;2023-11-19T02:31:18;101055.72;;;12.10;100.00
78845;BME280;68195;50.854;2.860;2023-11-19T02:33:46;101004.97;;;11.78;100.00
78845;BME280;68195;50.854;2.860;2023-11-19T02:36:11;101056.63;;;12.09;100.00
78845;BME280;68195;50.854;2.860;2023-11-19T02:38:37;101039.09;;;11.94;100.00
78845;BME280;68195;50.854;2.860;2023-11-19T02:41:06;101006.84;;;11.76;100.00
78845;BME280;68195;50.854;2.860;2023-11-19T02:43:32;100965.22;;;11.54;100.00
78845;BME280;68195;50.854;2.860;2023-11-19T02:46:03;101031.50;;;11.87;100.00
78845;BME280;68195;50.854;2.860;2023-11-19T02:48:34;100989.91;;;11.65;100.00
78845;BME280;68195;50.854;2.860;2023-11-19T02:51:06;101036.75;;;11.87;100.00
78845;BME280;68195;50.854;2.860;2023-11-19T02:53:37;101034.81;;;11.93;100.00
78845;BME280;68195;50.854;2.860;2023-11-19T02:56:03;100965.53;;;11.47;100.00
78845;BME280;68195;50.854;2.860;2023-11-19T02:58:35;100928.75;;;11.16;100.00
78845;BME280;68195;50.854;2.860;2023-11-19T03:01:00;101044.59;;;11.87;100.00
78845;BME280;68195;50.854;2.860;2023-11-19T03:03:35;101018.44;;;11.70;100.00
78845;BME280;68195;50.854;2.860;2023-11-19T03:06:05;101041.03;;;11.90;100.00
78845;BME280;68195;50.854;2.860;2023-11-19T03:08:31;101006.91;;;11.57;100.00
78845;BME280;68195;50.854;2.860;2023-11-19T03:11:00;101053.75;;;11.79;100.00
78845;BME280;68195;50.854;2.860;2023-11-19T03:13:30;101054.03;;;11.92;100.00
78845;BME280;68195;50.854;2.860;2023-11-19T03:15:55;101027.38;;;11.66;100.00
78845;BME280;68195;50.854;2.860;2023-11-19T03:18:21;101027.22;;;11.69;100.00
78845;BME280;68195;50.854;2.860;2023-11-19T03:20:46;101053.75;;;11.79;100.00
78845;BME280;68195;50.854;2.860;2023-11-19T03:23:11;101002.44;;;11.41;100.00
78845;BME280;68195;50.854;2.860;2023-11-19T03:25:37;101051.25;;;11.77;100.00
78845;BME280;68195;50.854;2.860;2023-11-19T03:28:03;100966.41;;;11.29;100.00
78845;BME280;68195;50.854;2.860;2023-11-19T03:30:34;101054.94;;;11.73;100.00
78845;BME280;68195;50.854;2.860;2023-11-19T03:33:00;101027.00;;;11.56;100.00
78845;BME280;68195;50.854;2.860;2023-11-19T03:35:28;100987.81;;;11.37;100.00
78845;BME280;68195;50.854;2.860;2023-11-19T03:37:53;101014.69;;;11.58;100.00
78845;BME280;68195;50.854;2.860;2023-11-19T03:40:21;101041.22;;;11.68;100.00
78845;BME280;68195;50.854;2.860;2023-11-19T03:42:46;101022.59;;;11.57;100.00
78845;BME280;68195;50.854;2.860;2023-11-19T03:45:14;101025.44;;;11.52;100.00
78845;BME280;68195;50.854;2.860;2023-11-19T03:47:41;101021.88;;;11.53;100.00
78845;BME280;68195;50.854;2.860;2023-11-19T03:50:09;101055.75;;;11.56;100.00
78845;BME280;68195;50.854;2.860;2023-11-19T03:52:35;101065.16;;;11.60;100.00
78845;BME280;68195;50.854;2.860;2023-11-19T03:55:03;101037.19;;;11.43;100.00
78845;BME280;68195;50.854;2.860;2023-11-19T03:57:30;101062.53;;;11.60;100.00
78845;BME280;68195;50.854;2.860;2023-11-19T03:59:56;101053.97;;;11.57;100.00
78845;BME280;68195;50.854;2.860;2023-11-19T04:02:28;101034.59;;;11.61;100.00
78845;BME280;68195;50.854;2.860;2023-11-19T04:04:56;101006.41;;;11.31;100.00
78845;BME280;68195;50.854;2.860;2023-11-19T04:07:24;101058.16;;;11.61;100.00
78845;BME280;68195;50.854;2.860;2023-11-19T04:09:49;101026.91;;;11.40;100.00
78845;BME280;68195;50.854;2.860;2023-11-19T04:12:17;101000.25;;;11.15;100.00
78845;BME280;68195;50.854;2.860;2023-11-19T04:14:47;101051.06;;;11.45;100.00
78845;BME280;68195;50.854;2.860;2023-11-19T04:17:15;101041.59;;;11.43;100.00
78845;BME280;68195;50.854;2.860;2023-11-19T04:19:40;100907.38;;;10.71;100.00
78845;BME280;68195;50.854;2.860;2023-11-19T04:22:08;101063.53;;;11.58;100.00
78845;BME280;68195;50.854;2.860;2023-11-19T04:24:34;101053.59;;;11.47;100.00
78845;BME280;68195;50.854;2.860;2023-11-19T04:27:02;101058.38;;;11.56;100.00
78845;BME280;68195;50.854;2.860;2023-11-19T04:29:29;101066.75;;;11.45;100.00
78845;BME280;68195;50.854;2.860;2023-11-19T04:31:55;101023.56;;;11.19;100.00
78845;BME280;68195;50.854;2.860;2023-11-19T04:34:23;101027.78;;;11.22;100.00
78845;BME280;68195;50.854;2.860;2023-11-19T04:36:49;100964.28;;;10.83;100.00
78845;BME280;68195;50.854;2.860;2023-11-19T04:39:16;101032.41;;;11.17;100.00
78845;BME280;68195;50.854;2.860;2023-11-19T04:41:52;101046.16;;;11.20;100.00
78845;BME280;68195;50.854;2.860;2023-11-19T04:44:18;101075.03;;;11.36;100.00
78845;BME280;68195;50.854;2.860;2023-11-19T04:46:44;101082.66;;;11.41;100.00
78845;BME280;68195;50.854;2.860;2023-11-19T04:49:13;101086.97;;;11.42;100.00
78845;BME280;68195;50.854;2.860;2023-11-19T04:54:05;101026.03;;;11.03;100.00
78845;BME280;68195;50.854;2.860;2023-11-19T04:56:31;101076.00;;;11.34;100.00
78845;BME280;68195;50.854;2.860;2023-11-19T04:58:59;101053.16;;;11.20;100.00
78845;BME280;68195;50.854;2.860;2023-11-19T05:01:25;101029.88;;;10.96;100.00
78845;BME280;68195;50.854;2.860;2023-11-19T05:03:52;101019.78;;;10.88;100.00
78845;BME280;68195;50.854;2.860;2023-11-19T05:06:20;100998.00;;;10.88;100.00
78845;BME280;68195;50.854;2.860;2023-11-19T05:08:46;100921.66;;;10.45;100.00
78845;BME280;68195;50.854;2.860;2023-11-19T05:11:11;101037.13;;;11.08;100.00
78845;BME280;68195;50.854;2.860;2023-11-19T05:13:43;101005.00;;;11.06;100.00
78845;BME280;68195;50.854;2.860;2023-11-19T05:16:14;100976.56;;;10.81;100.00
78845;BME280;68195;50.854;2.860;2023-11-19T05:18:43;101042.19;;;11.12;100.00
78845;BME280;68195;50.854;2.860;2023-11-19T05:21:08;101030.78;;;10.95;100.00
78845;BME280;68195;50.854;2.860;2023-11-19T05:23:34;101062.22;;;11.13;100.00
78845;BME280;68195;50.854;2.860;2023-11-19T05:26:00;101050.03;;;11.12;100.00
78845;BME280;68195;50.854;2.860;2023-11-19T05:28:26;101056.03;;;11.14;100.00
78845;BME280;68195;50.854;2.860;2023-11-19T05:30:51;100980.25;;;10.58;100.00
78845;BME280;68195;50.854;2.860;2023-11-19T05:33:17;101063.28;;;11.08;100.00
78845;BME280;68195;50.854;2.860;2023-11-19T05:35:42;101029.47;;;10.86;100.00
78845;BME280;68195;50.854;2.860;2023-11-19T05:38:07;101060.50;;;11.12;100.00
78845;BME280;68195;50.854;2.860;2023-11-19T05:40:35;101053.16;;;11.01;100.00
78845;BME280;68195;50.854;2.860;2023-11-19T05:43:03;100993.38;;;10.57;100.00
78845;BME280;68195;50.854;2.860;2023-11-19T05:45:31;101040.59;;;10.90;100.00
78845;BME280;68195;50.854;2.860;2023-11-19T05:47:57;101053.09;;;10.83;100.00
78845;BME280;68195;50.854;2.860;2023-11-19T05:50:25;101018.28;;;10.64;100.00
78845;BME280;68195;50.854;2.860;2023-11-19T05:52:52;101000.84;;;10.64;100.00
78845;BME280;68195;50.854;2.860;2023-11-19T05:55:18;101049.59;;;10.84;100.00
78845;BME280;68195;50.854;2.860;2023-11-19T05:57:47;101008.47;;;10.50;100.00
78845;BME280;68195;50.854;2.860;2023-11-19T06:00:15;100954.50;;;10.11;100.00
78845;BME280;68195;50.854;2.860;2023-11-19T06:02:40;101026.13;;;10.64;100.00
78845;BME280;68195;50.854;2.860;2023-11-19T06:05:06;100996.75;;;10.40;100.00
78845;BME280;68195;50.854;2.860;2023-11-19T06:07:32;101047.81;;;10.85;100.00
78845;BME280;68195;50.854;2.860;2023-11-19T06:10:00;100913.63;;;9.91;100.00
78845;BME280;68195;50.854;2.860;2023-11-19T06:12:25;100944.91;;;10.12;100.00
78845;BME280;68195;50.854;2.860;2023-11-19T06:14:55;101001.44;;;10.52;100.00
78845;BME280;68195;50.854;2.860;2023-11-19T06:17:24;101035.97;;;10.78;100.00
78845;BME280;68195;50.854;2.860;2023-11-19T06:19:54;101018.56;;;10.58;100.00
78845;BME280;68195;50.854;2.860;2023-11-19T06:22:21;101036.03;;;10.76;100.00
78845;BME280;68195;50.854;2.860;2023-11-19T06:24:49;101033.47;;;10.75;100.00
78845;BME280;68195;50.854;2.860;2023-11-19T06:27:17;101056.84;;;10.78;100.00
78845;BME280;68195;50.854;2.860;2023-11-19T06:29:45;101022.59;;;10.46;100.00
78845;BME280;68195;50.854;2.860;2023-11-19T06:32:10;101040.91;;;10.65;100.00
78845;BME280;68195;50.854;2.860;2023-11-19T06:34:35;101012.50;;;10.57;100.00
78845;BME280;68195;50.854;2.860;2023-11-19T06:37:01;101040.44;;;10.55;100.00
78845;BME280;68195;50.854;2.860;2023-11-19T06:39:31;101018.94;;;10.50;100.00
78845;BME280;68195;50.854;2.860;2023-11-19T06:41:56;101029.09;;;10.56;100.00
78845;BME280;68195;50.854;2.860;2023-11-19T06:44:22;101053.22;;;10.61;100.00
78845;BME280;68195;50.854;2.860;2023-11-19T06:46:48;101045.34;;;10.63;100.00
78845;BME280;68195;50.854;2.860;2023-11-19T06:49:14;101005.63;;;10.36;100.00
78845;BME280;68195;50.854;2.860;2023-11-19T06:51:45;101028.88;;;10.42;100.00
78845;BME280;68195;50.854;2.860;2023-11-19T06:54:11;100974.81;;;10.23;100.00
78845;BME280;68195;50.854;2.860;2023-11-19T06:56:36;101053.22;;;10.61;100.00
78845;BME280;68195;50.854;2.860;2023-11-19T06:59:04;101000.63;;;10.31;100.00
78845;BME280;68195;50.854;2.860;2023-11-19T07:01:36;101042.50;;;10.67;100.00
78845;BME280;68195;50.854;2.860;2023-11-19T07:04:02;101030.06;;;10.54;100.00
78845;BME280;68195;50.854;2.860;2023-11-19T07:06:34;101031.56;;;10.59;100.00
78845;BME280;68195;50.854;2.860;2023-11-19T07:09:00;101051.25;;;10.85;100.00
78845;BME280;68195;50.854;2.860;2023-11-19T07:11:40;101018.44;;;10.61;100.00
78845;BME280;68195;50.854;2.860;2023-11-19T07:14:07;101063.00;;;10.77;100.00
78845;BME280;68195;50.854;2.860;2023-11-19T07:16:35;101047.59;;;10.71;100.00
78845;BME280;68195;50.854;2.860;2023-11-19T07:19:04;101069.50;;;10.87;100.00
78845;BME280;68195;50.854;2.860;2023-11-19T07:21:33;101076.41;;;10.88;100.00
78845;BME280;68195;50.854;2.860;2023-11-19T07:23:58;101011.38;;;10.44;100.00
78845;BME280;68195;50.854;2.860;2023-11-19T07:26:29;100989.59;;;10.24;100.00
78845;BME280;68195;50.854;2.860;2023-11-19T07:28:56;101070.50;;;10.84;100.00
78845;BME280;68195;50.854;2.860;2023-11-19T07:31:23;100988.91;;;10.40;100.00
78845;BME280;68195;50.854;2.860;2023-11-19T07:33:52;101080.78;;;11.06;100.00
78845;BME280;68195;50.854;2.860;2023-11-19T07:36:17;101083.25;;;11.09;100.00
78845;BME280;68195;50.854;2.860;2023-11-19T07:38:43;101043.03;;;10.76;100.00
78845;BME280;68195;50.854;2.860;2023-11-19T07:41:11;100988.22;;;10.55;100.00
78845;BME280;68195;50.854;2.860;2023-11-19T07:43:42;101077.41;;;11.04;100.00
78845;BME280;68195;50.854;2.860;2023-11-19T07:46:12;101044.41;;;10.83;100.00
78845;BME280;68195;50.854;2.860;2023-11-19T07:48:38;101069.69;;;11.01;100.00
78845;BME280;68195;50.854;2.860;2023-11-19T07:51:04;101086.72;;;11.10;100.00
78845;BME280;68195;50.854;2.860;2023-11-19T07:53:32;101078.63;;;10.97;100.00
78845;BME280;68195;50.854;2.860;2023-11-19T07:56:03;101061.72;;;10.85;100.00
78845;BME280;68195;50.854;2.860;2023-11-19T07:58:28;101093.13;;;11.03;100.00
78845;BME280;68195;50.854;2.860;2023-11-19T08:00:53;101069.69;;;11.01;100.00
78845;BME280;68195;50.854;2.860;2023-11-19T08:03:24;100997.34;;;10.65;100.00
78845;BME280;68195;50.854;2.860;2023-11-19T08:05:49;100947.16;;;10.40;100.00
78845;BME280;68195;50.854;2.860;2023-11-19T08:08:15;100929.38;;;10.29;100.00
78845;BME280;68195;50.854;2.860;2023-11-19T08:10:40;101010.25;;;10.68;100.00
78845;BME280;68195;50.854;2.860;2023-11-19T08:13:06;100914.78;;;10.23;100.00
78845;BME280;68195;50.854;2.860;2023-11-19T08:15:32;100905.41;;;10.19;100.00
78845;BME280;68195;50.854;2.860;2023-11-19T08:17:58;101029.09;;;10.75;100.00
78845;BME280;68195;50.854;2.860;2023-11-19T08:20:23;101078.47;;;11.00;100.00
78845;BME280;68195;50.854;2.860;2023-11-19T08:22:49;101074.28;;;11.15;100.00
78845;BME280;68195;50.854;2.860;2023-11-19T08:25:17;101027.03;;;10.82;100.00
78845;BME280;68195;50.854;2.860;2023-11-19T08:27:43;101081.91;;;11.20;100.00
78845;BME280;68195;50.854;2.860;2023-11-19T08:30:11;101063.00;;;11.15;100.00
78845;BME280;68195;50.854;2.860;2023-11-19T08:32:36;101080.69;;;11.27;100.00
78845;BME280;68195;50.854;2.860;2023-11-19T08:35:02;101010.00;;;10.92;100.00
78845;BME280;68195;50.854;2.860;2023-11-19T08:37:27;100993.75;;;11.04;100.00
78845;BME280;68195;50.854;2.860;2023-11-19T08:39:57;101043.66;;;11.36;100.00
78845;BME280;68195;50.854;2.860;2023-11-19T08:42:25;101057.03;;;11.30;100.00
78845;BME280;68195;50.854;2.860;2023-11-19T08:44:50;101088.38;;;11.49;100.00
78845;BME280;68195;50.854;2.860;2023-11-19T08:47:19;101050.81;;;11.33;100.00
78845;BME280;68195;50.854;2.860;2023-11-19T08:49:47;101048.72;;;11.39;100.00
78845;BME280;68195;50.854;2.860;2023-11-19T08:52:12;101022.75;;;11.36;100.00
78845;BME280;68195;50.854;2.860;2023-11-19T08:54:42;100987.97;;;11.34;100.00
78845;BME280;68195;50.854;2.860;2023-11-19T08:57:07;101064.78;;;12.03;100.00
78845;BME280;68195;50.854;2.860;2023-11-19T08:59:34;101027.97;;;11.90;100.00
78845;BME280;68195;50.854;2.860;2023-11-19T09:01:59;100988.09;;;11.83;100.00
78845;BME280;68195;50.854;2.860;2023-11-19T09:04:24;101083.75;;;12.59;100.00
78845;BME280;68195;50.854;2.860;2023-11-19T09:06:53;101079.78;;;12.67;100.00
78845;BME280;68195;50.854;2.860;2023-11-19T09:09:18;101068.63;;;12.64;100.00
78845;BME280;68195;50.854;2.860;2023-11-19T09:11:43;101088.91;;;12.76;100.00
78845;BME280;68195;50.854;2.860;2023-11-19T09:14:11;101050.28;;;12.30;100.00
78845;BME280;68195;50.854;2.860;2023-11-19T09:16:39;100994.75;;;12.08;100.00
78845;BME280;68195;50.854;2.860;2023-11-19T09:19:04;101059.84;;;12.31;100.00
78845;BME280;68195;50.854;2.860;2023-11-19T09:21:30;101035.47;;;11.96;100.00
78845;BME280;68195;50.854;2.860;2023-11-19T09:23:59;101044.16;;;12.14;100.00
78845;BME280;68195;50.854;2.860;2023-11-19T09:26:27;101073.56;;;12.19;100.00
78845;BME280;68195;50.854;2.860;2023-11-19T09:28:53;101081.88;;;12.27;100.00
78845;BME280;68195;50.854;2.860;2023-11-19T09:31:18;101089.75;;;12.27;100.00
78845;BME280;68195;50.854;2.860;2023-11-19T09:33:44;101041.47;;;11.98;100.00
78845;BME280;68195;50.854;2.860;2023-11-19T09:36:14;101014.69;;;11.93;100.00
78845;BME280;68195;50.854;2.860;2023-11-19T09:38:43;100955.44;;;11.57;100.00
78845;BME280;68195;50.854;2.860;2023-11-19T09:41:10;101023.84;;;12.02;100.00
78845;BME280;68195;50.854;2.860;2023-11-19T09:43:39;101070.59;;;12.43;100.00
78845;BME280;68195;50.854;2.860;2023-11-19T09:46:06;101037.63;;;12.05;100.00
78845;BME280;68195;50.854;2.860;2023-11-19T09:48:38;101054.22;;;12.22;100.00
78845;BME280;68195;50.854;2.860;2023-11-19T09:51:06;101054.66;;;12.14;100.00
78845;BME280;68195;50.854;2.860;2023-11-19T09:53:32;101080.19;;;12.26;100.00
78845;BME280;68195;50.854;2.860;2023-11-19T09:56:00;101091.72;;;12.40;100.00
78845;BME280;68195;50.854;2.860;2023-11-19T09:58:30;101086.81;;;12.34;100.00
78845;BME280;68195;50.854;2.860;2023-11-19T10:00:59;101053.00;;;12.29;100.00
78845;BME280;68195;50.854;2.860;2023-11-19T10:03:27;101068.91;;;12.42;100.00
78845;BME280;68195;50.854;2.860;2023-11-19T10:05:55;101094.84;;;12.64;100.00
78845;BME280;68195;50.854;2.860;2023-11-19T10:08:21;101096.97;;;12.73;100.00
78845;BME280;68195;50.854;2.860;2023-11-19T10:10:47;101058.78;;;12.51;100.00
78845;BME280;68195;50.854;2.860;2023-11-19T10:13:13;101050.09;;;12.51;100.00
78845;BME280;68195;50.854;2.860;2023-11-19T10:15:40;101072.53;;;12.72;100.00
78845;BME280;68195;50.854;2.860;2023-11-19T10:18:05;101060.44;;;12.70;100.00
78845;BME280;68195;50.854;2.860;2023-11-19T10:20:37;101082.97;;;12.90;100.00
78845;BME280;68195;50.854;2.860;2023-11-19T10:23:03;101074.75;;;12.96;100.00
78845;BME280;68195;50.854;2.860;2023-11-19T10:25:29;101047.84;;;13.08;100.00
78845;BME280;68195;50.854;2.860;2023-11-19T10:27:57;101062.72;;;13.24;100.00
78845;BME280;68195;50.854;2.860;2023-11-19T10:30:27;101077.31;;;13.29;100.00
78845;BME280;68195;50.854;2.860;2023-11-19T10:33:03;101067.50;;;13.33;100.00
78845;BME280;68195;50.854;2.860;2023-11-19T10:35:29;101023.94;;;12.99;100.00
78845;BME280;68195;50.854;2.860;2023-11-19T10:37:54;101052.09;;;13.11;100.00
78845;BME280;68195;50.854;2.860;2023-11-19T10:40:22;101032.88;;;13.10;100.00
78845;BME280;68195;50.854;2.860;2023-11-19T10:43:02;100974.88;;;12.69;100.00
78845;BME280;68195;50.854;2.860;2023-11-19T10:45:27;100910.66;;;12.46;100.00
78845;BME280;68195;50.854;2.860;2023-11-19T10:47:54;101004.47;;;13.03;100.00
78845;BME280;68195;50.854;2.860;2023-11-19T10:50:22;100986.97;;;13.03;100.00
78845;BME280;68195;50.854;2.860;2023-11-19T10:52:52;100991.88;;;13.09;100.00
78845;BME280;68195;50.854;2.860;2023-11-19T10:55:27;100963.91;;;12.94;100.00
78845;BME280;68195;50.854;2.860;2023-11-19T10:57:52;100993.53;;;13.26;100.00
78845;BME280;68195;50.854;2.860;2023-11-19T11:00:24;101021.13;;;13.33;100.00
78845;BME280;68195;50.854;2.860;2023-11-19T11:02:54;101012.84;;;13.09;100.00
78845;BME280;68195;50.854;2.860;2023-11-19T11:05:22;101026.88;;;13.24;100.00
78845;BME280;68195;50.854;2.860;2023-11-19T11:07:47;101055.16;;;13.35;100.00
78845;BME280;68195;50.854;2.860;2023-11-19T11:10:14;101051.78;;;13.33;100.00
78845;BME280;68195;50.854;2.860;2023-11-19T11:12:41;101014.53;;;12.95;100.00
78845;BME280;68195;50.854;2.860;2023-11-19T11:15:07;101047.00;;;13.08;100.00
78845;BME280;68195;50.854;2.860;2023-11-19T11:17:36;101018.34;;;12.89;100.00
78845;BME280;68195;50.854;2.860;2023-11-19T11:20:01;101027.72;;;12.77;100.00
78845;BME280;68195;50.854;2.860;2023-11-19T11:22:39;101054.28;;;12.87;100.00
78845;BME280;68195;50.854;2.860;2023-11-19T11:25:19;101046.66;;;12.82;100.00
78845;BME280;68195;50.854;2.860;2023-11-19T11:28:17;101012.84;;;12.78;100.00
78845;BME280;68195;50.854;2.860;2023-11-19T11:36:33;101013.25;;;13.18;100.00
78845;BME280;68195;50.854;2.860;2023-11-19T11:39:02;100970.31;;;12.88;100.00
78845;BME280;68195;50.854;2.860;2023-11-19T11:41:32;100991.88;;;13.09;100.00
78845;BME280;68195;50.854;2.860;2023-11-19T11:43:58;101025.34;;;13.36;100.00
78845;BME280;68195;50.854;2.860;2023-11-19T11:49:04;100984.09;;;12.92;100.00
78845;BME280;68195;50.854;2.860;2023-11-19T11:57:07;101065.03;;;12.98;100.00
78845;BME280;68195;50.854;2.860;2023-11-19T12:02:03;101037.19;;;12.96;100.00
78845;BME280;68195;50.854;2.860;2023-11-19T12:04:29;101036.88;;;12.86;100.00
78845;BME280;68195;50.854;2.860;2023-11-19T12:10:06;101030.97;;;12.98;100.00
78845;BME280;68195;50.854;2.860;2023-11-19T12:12:38;101025.03;;;12.95;100.00
78845;BME280;68195;50.854;2.860;2023-11-19T12:15:07;101013.09;;;12.89;100.00
78845;BME280;68195;50.854;2.860;2023-11-19T12:17:41;101015.22;;;12.98;100.00
78845;BME280;68195;50.854;2.860;2023-11-19T12:20:10;101020.44;;;12.82;100.00
78845;BME280;68195;50.854;2.860;2023-11-19T12:22:40;100987.41;;;12.80;100.00
78845;BME280;68195;50.854;2.860;2023-11-19T12:25:07;100984.59;;;12.83;100.00
78845;BME280;68195;50.854;2.860;2023-11-19T12:27:36;100993.84;;;12.90;100.00
78845;BME280;68195;50.854;2.860;2023-11-19T12:30:07;100999.72;;;12.93;100.00
78845;BME280;68195;50.854;2.860;2023-11-19T12:32:42;100985.22;;;12.88;100.00
78845;BME280;68195;50.854;2.860;2023-11-19T12:35:11;100979.63;;;12.94;100.00
78845;BME280;68195;50.854;2.860;2023-11-19T12:37:43;100991.88;;;13.09;100.00
78845;BME280;68195;50.854;2.860;2023-11-19T12:42:51;100994.91;;;13.02;100.00
78845;BME280;68195;50.854;2.860;2023-11-19T12:45:21;100986.03;;;13.04;100.00
78845;BME280;68195;50.854;2.860;2023-11-19T12:47:50;100969.47;;;12.88;100.00
78845;BME280;68195;50.854;2.860;2023-11-19T12:50:17;100970.25;;;12.90;100.00
78845;BME280;68195;50.854;2.860;2023-11-19T12:52:55;100976.91;;;12.96;100.00
78845;BME280;68195;50.854;2.860;2023-11-19T12:55:25;100970.75;;;12.97;100.00
78845;BME280;68195;50.854;2.860;2023-11-19T12:57:54;100964.47;;;12.99;100.00
78845;BME280;68195;50.854;2.860;2023-11-19T13:00:25;100991.63;;;12.82;100.00
78845;BME280;68195;50.854;2.860;2023-11-19T13:02:56;100991.13;;;12.76;100.00
78845;BME280;68195;50.854;2.860;2023-11-19T13:05:26;100999.16;;;12.72;100.00
78845;BME280;68195;50.854;2.860;2023-11-19T13:08:07;100980.06;;;12.70;100.00
78845;BME280;68195;50.854;2.860;2023-11-19T13:10:34;101000.97;;;12.55;100.00